»·PEaware :: DAL427 KSBA-KLAS

DAL427 :: KSBA-KLAS

FLIGHT INFORMATION

Flight Status: Arrived
Operator:
Delta Air Lines
More flights by this operator :: More flights under this callsign
Pilot: Ben F. (13029)
Aircraft: BOEING 737-300
(B733)
More flights by this aircraft type
Origin: KSBA Santa Barbara Mun
United States
Destination: KLAS McCarran Intl
United States
More flights between these airports :: More routes between these airports
Route: +MISHN2 NNAVY MISEN KEPEC6
File this flight plan on PilotEdge
Remarks: RMK / SIMBRIEF
Altitude:
(Current/Filed)
29,000ft
Speed:
(Current/Filed)
419kts
Departed: 23-Mar-19 01:15 PM
Arrived: 23-Mar-19 02:21 PM
Distance/Time
Traveled:
251nm/1:06
Distance/Time
To Go:
Arrived

Flight Plot

Page will automatically refresh every two minutes.

Flight plan parsing failed; only flown route is shown


Map Options




Map Legend


Flown Route
Filed Route
Departure Airport
Arrival Airport
Navaid (VOR, NDB)
Fix

Horizontal Profiles

Position Reports

Time Latitude Longitude Heading Altitude Ground
Speed
23-Mar-19 12:50 34.425155 -119.837372 114 19ft 0kts
23-Mar-19 12:51 34.425155 -119.837372 114 19ft 0kts
23-Mar-19 12:52 34.425155 -119.837372 114 19ft 0kts
23-Mar-19 12:53 34.425155 -119.837372 114 19ft 0kts
23-Mar-19 12:54 34.425155 -119.837372 114 19ft 0kts
23-Mar-19 12:55 34.425155 -119.837372 114 19ft 0kts
23-Mar-19 12:56 34.425155 -119.837372 114 19ft 0kts
23-Mar-19 12:57 34.425155 -119.837372 114 19ft 0kts
23-Mar-19 12:58 34.425155 -119.837372 114 19ft 0kts
23-Mar-19 12:59 34.425155 -119.837372 114 19ft 0kts
23-Mar-19 13:00 34.425155 -119.837372 114 19ft 0kts
23-Mar-19 13:01 34.425155 -119.837372 114 19ft 0kts
23-Mar-19 13:02 34.425155 -119.837372 114 19ft 0kts
23-Mar-19 13:03 34.425155 -119.837372 114 19ft 0kts
23-Mar-19 13:04 34.425155 -119.837372 114 19ft 0kts
23-Mar-19 13:05 34.425155 -119.837372 114 19ft 0kts
23-Mar-19 13:06 34.425155 -119.837372 114 19ft 0kts
23-Mar-19 13:07 34.425089 -119.837581 13 19ft 1kts
23-Mar-19 13:08 34.424890 -119.837515 343 19ft 0kts
23-Mar-19 13:10 34.424890 -119.837515 343 19ft 0kts
23-Mar-19 13:11 34.425060 -119.837607 330 19ft 3kts
23-Mar-19 13:12 34.426749 -119.835883 88 19ft 16kts
23-Mar-19 13:13 34.427014 -119.834722 17 19ft 0kts
23-Mar-19 13:14 34.427620 -119.834675 355 19ft 7kts
23-Mar-19 13:15 34.427468 -119.854588 267 85ft 156kts
23-Mar-19 13:16 34.422576 -119.908996 243 1877ft 163kts
23-Mar-19 13:17 34.384308 -119.934657 187 2894ft 175kts
23-Mar-19 13:18 34.337961 -119.927783 139 4777ft 171kts
23-Mar-19 13:19 34.294782 -119.875503 134 5366ft 262kts
23-Mar-19 13:20 34.245369 -119.815319 134 6964ft 278kts
23-Mar-19 13:21 34.202983 -119.743518 98 9439ft 286kts
23-Mar-19 13:22 34.197763 -119.637139 92 10976ft 338kts
23-Mar-19 13:23 34.196024 -119.520086 86 13616ft 351kts
23-Mar-19 13:24 34.201018 -119.399368 86 16143ft 365kts
23-Mar-19 13:25 34.206011 -119.273310 87 18457ft 378kts
23-Mar-19 13:26 34.211006 -119.143791 87 20580ft 390kts
23-Mar-19 13:27 34.229000 -119.012193 76 22496ft 401kts
23-Mar-19 13:27 34.251330 -118.901515 76 22795ft 405kts
23-Mar-19 13:29 34.282672 -118.744550 76 24372ft 413kts
23-Mar-19 13:30 34.309732 -118.608001 76 25990ft 424kts
23-Mar-19 13:30 34.332871 -118.490533 76 27246ft 432kts
23-Mar-19 13:31 34.360398 -118.349974 76 28669ft 438kts
23-Mar-19 13:33 34.390003 -118.197505 76 28778ft 422kts
23-Mar-19 13:33 34.412344 -118.081920 76 28781ft 423kts
23-Mar-19 13:34 34.452725 -117.947475 64 28782ft 423kts
23-Mar-19 13:35 34.503305 -117.818622 64 28780ft 423kts
23-Mar-19 13:36 34.553835 -117.688456 64 28781ft 423kts
23-Mar-19 13:37 34.603986 -117.558735 64 28781ft 423kts
23-Mar-19 13:38 34.650656 -117.437565 64 28781ft 423kts
23-Mar-19 13:39 34.695354 -117.321013 65 28929ft 422kts
23-Mar-19 13:40 34.745484 -117.189701 65 29006ft 423kts
23-Mar-19 13:41 34.794134 -117.061952 65 29002ft 423kts
23-Mar-19 13:42 34.843591 -116.931567 65 29002ft 423kts
23-Mar-19 13:43 34.893022 -116.800719 65 29002ft 423kts
23-Mar-19 13:44 34.949404 -116.674480 54 29005ft 422kts
23-Mar-19 13:45 35.016712 -116.556216 55 29001ft 422kts
23-Mar-19 13:46 35.083594 -116.437436 55 29001ft 422kts
23-Mar-19 13:47 35.160647 -116.330735 45 26889ft 416kts
23-Mar-19 13:48 35.240245 -116.231270 45 24762ft 412kts
23-Mar-19 13:49 35.318762 -116.132621 45 22525ft 392kts
23-Mar-19 13:50 35.393285 -116.038714 45 20416ft 374kts
23-Mar-19 13:51 35.466428 -115.946285 45 18339ft 370kts
23-Mar-19 13:52 35.537172 -115.856650 45 16520ft 344kts
23-Mar-19 13:53 35.599525 -115.777442 45 14984ft 311kts
23-Mar-19 13:54 35.659113 -115.701594 45 13161ft 301kts
23-Mar-19 13:55 35.717251 -115.626805 45 12969ft 302kts
23-Mar-19 13:56 35.785910 -115.573804 2 12979ft 302kts
23-Mar-19 13:57 35.870763 -115.569240 2 12972ft 302kts
23-Mar-19 13:58 35.955304 -115.561455 22 12963ft 301kts
23-Mar-19 13:59 35.999173 -115.475926 68 12432ft 301kts
23-Mar-19 14:00 36.028317 -115.383404 73 11110ft 268kts
23-Mar-19 14:01 36.025018 -115.292331 95 9367ft 265kts
23-Mar-19 14:02 36.018725 -115.206195 95 8976ft 241kts
23-Mar-19 14:03 36.013234 -115.126321 94 7925ft 234kts
23-Mar-19 14:04 36.007986 -115.044836 94 7977ft 237kts
23-Mar-19 14:05 36.003159 -114.963547 94 7972ft 236kts
23-Mar-19 14:06 35.998300 -114.882017 94 7972ft 236kts
23-Mar-19 14:07 35.993192 -114.800615 94 7973ft 236kts
23-Mar-19 14:08 35.987787 -114.718945 94 7972ft 236kts
23-Mar-19 14:09 35.982593 -114.637596 87 7970ft 233kts
23-Mar-19 14:10 36.024572 -114.603152 5 8035ft 193kts
23-Mar-19 14:11 36.065039 -114.631890 276 7968ft 192kts
23-Mar-19 14:12 36.070593 -114.697859 275 7971ft 192kts
23-Mar-19 14:13 36.073683 -114.763428 270 7563ft 188kts
23-Mar-19 14:14 36.073505 -114.827380 269 6069ft 184kts
23-Mar-19 14:15 36.073474 -114.890938 270 5316ft 184kts
23-Mar-19 14:16 36.073585 -114.954023 270 4568ft 173kts
23-Mar-19 14:17 36.073626 -115.005287 270 3843ft 140kts
23-Mar-19 14:18 36.073580 -115.053724 269 3296ft 141kts
23-Mar-19 14:19 36.073621 -115.100427 268 2568ft 135kts
23-Mar-19 14:20 36.073631 -115.142493 273 2118ft 28kts
23-Mar-19 14:21 36.074764 -115.146140 303 2118ft 9kts
23-Mar-19 14:22 36.078455 -115.146358 93 2118ft 16kts
23-Mar-19 14:23 36.078730 -115.139669 43 2118ft 18kts
23-Mar-19 14:24 36.080456 -115.138871 345 2118ft 0kts
23-Mar-19 14:25 36.080456 -115.138871 345 2118ft 0kts

Navigation Log

Ident Type
Flight plan parsing failed, navigation log unavailable